createdAt,value
2018-03-27T00:00:51.727Z,87.15
2018-03-27T00:01:51.418Z,86.77
2018-03-27T00:02:52.055Z,86.39
2018-03-27T00:03:51.690Z,87.05
2018-03-27T00:04:52.586Z,86.87
2018-03-27T00:05:51.720Z,86.30
2018-03-27T00:06:51.728Z,87.34
2018-03-27T00:07:51.732Z,87.24
2018-03-27T00:08:51.502Z,87.43
2018-03-27T00:12:51.553Z,87.34
2018-03-27T00:13:51.568Z,87.43
2018-03-27T00:14:51.578Z,86.96
2018-03-27T00:15:52.265Z,87.34
2018-03-27T00:16:52.949Z,87.43
2018-03-27T00:17:51.618Z,86.96
2018-03-27T00:18:51.629Z,87.82
2018-03-27T00:19:51.845Z,87.62
2018-03-27T00:20:52.293Z,86.96
2018-03-27T00:21:51.669Z,87.34
2018-03-27T00:22:51.687Z,87.43
2018-03-27T00:23:52.391Z,88.10
2018-03-27T00:24:52.479Z,87.82
2018-03-27T00:25:51.801Z,87.34
2018-03-27T00:26:52.060Z,87.43
2018-03-27T00:27:51.942Z,87.53
2018-03-27T00:28:51.760Z,87.34
2018-03-27T00:29:51.774Z,87.05
2018-03-27T00:30:51.787Z,87.15
2018-03-27T00:31:52.323Z,87.15
2018-03-27T00:32:51.810Z,86.68
2018-03-27T00:33:52.118Z,86.96
2018-03-27T00:35:52.605Z,86.30
2018-03-27T00:36:52.443Z,86.96
2018-03-27T00:37:52.072Z,87.34
2018-03-27T00:38:51.904Z,86.96
2018-03-27T00:39:52.696Z,87.62
2018-03-27T00:40:51.913Z,87.15
2018-03-27T00:41:51.932Z,87.05
2018-03-27T00:43:51.984Z,87.72
2018-03-27T00:44:51.967Z,87.15
2018-03-27T00:45:52.052Z,86.77
2018-03-27T00:46:51.990Z,86.77
2018-03-27T00:47:52.175Z,87.34
2018-03-27T00:48:52.037Z,86.96
2018-03-27T00:49:52.179Z,86.87
2018-03-27T00:50:52.047Z,87.53
2018-03-27T00:51:52.146Z,87.15
2018-03-27T00:52:52.103Z,86.96
2018-03-27T00:53:52.081Z,87.05
2018-03-27T00:54:52.146Z,86.68
2018-03-27T00:55:53.166Z,86.77
2018-03-27T00:56:52.216Z,86.96
2018-03-27T00:57:52.155Z,86.87
2018-03-27T00:58:52.143Z,86.96
2018-03-27T00:59:52.476Z,87.05
2018-03-27T01:00:52.172Z,86.30
2018-03-27T01:01:52.192Z,86.77
2018-03-27T01:02:52.196Z,86.30
2018-03-27T01:03:52.651Z,86.68
2018-03-27T01:04:52.224Z,87.15
2018-03-27T01:05:52.241Z,87.34
2018-03-27T01:06:52.250Z,86.87
2018-03-27T01:08:52.623Z,87.43
2018-03-27T01:09:53.511Z,87.15
2018-03-27T01:10:53.450Z,86.87
2018-03-27T01:11:52.312Z,87.72
2018-03-27T01:13:52.383Z,87.15
2018-03-27T01:14:53.035Z,87.24
2018-03-27T01:15:52.947Z,87.43
2018-03-27T01:16:52.373Z,87.34
2018-03-27T01:17:53.215Z,87.15
2018-03-27T01:18:52.400Z,87.43
2018-03-27T01:19:52.413Z,87.53
2018-03-27T01:20:52.432Z,86.87
2018-03-27T01:21:52.459Z,86.96
2018-03-27T01:22:52.453Z,86.87
2018-03-27T01:23:52.465Z,87.11
2018-03-27T01:24:52.478Z,87.34
2018-03-27T01:25:52.512Z,87.62
2018-03-27T01:26:52.773Z,87.82
2018-03-27T01:27:52.529Z,87.53
2018-03-27T01:28:53.036Z,87.24
2018-03-27T01:29:52.560Z,87.62
2018-03-27T01:30:52.570Z,87.15
2018-03-27T01:31:52.567Z,87.05
2018-03-27T01:32:52.586Z,87.24
2018-03-27T01:33:52.592Z,87.34
2018-03-27T01:34:52.604Z,88.10
2018-03-27T01:35:52.625Z,88.57
2018-03-27T01:36:52.988Z,89.14
2018-03-27T01:37:52.644Z,88.86
2018-03-27T01:38:52.658Z,89.14
2018-03-27T01:40:52.985Z,89.53
2018-03-27T01:41:52.788Z,89.72
2018-03-27T01:42:52.706Z,90.38
2018-03-27T01:43:52.718Z,90.38
2018-03-27T01:44:53.590Z,90.76
2018-03-27T01:45:52.840Z,90.38
2018-03-27T01:47:53.098Z,92.18
2018-03-27T01:48:52.798Z,91.71
2018-03-27T01:49:52.796Z,91.99
2018-03-27T01:50:52.809Z,93.56
2018-03-27T01:51:52.987Z,93.94
2018-03-27T01:52:52.840Z,93.99
2018-03-27T01:53:52.859Z,94.27
2018-03-27T01:54:52.857Z,94.03
2018-03-27T01:55:52.877Z,93.32
2018-03-27T01:56:52.884Z,92.80
2018-03-27T01:57:52.900Z,94.03
2018-03-27T01:58:52.913Z,93.65
2018-03-27T01:59:52.925Z,93.94
2018-03-27T02:00:52.937Z,93.99
2018-03-27T02:01:53.031Z,94.18
2018-03-27T02:02:52.964Z,95.22
2018-03-27T02:03:52.973Z,94.79
2018-03-27T02:04:52.988Z,94.46
2018-03-27T02:05:52.998Z,95.36
2018-03-27T02:06:53.011Z,95.03
2018-03-27T02:07:53.031Z,94.93
2018-03-27T02:08:53.039Z,94.98
2018-03-27T02:09:53.054Z,95.27
2018-03-27T02:10:53.061Z,94.56
2018-03-27T02:11:53.077Z,95.51
2018-03-27T02:12:53.394Z,94.74
2018-03-27T02:13:53.100Z,94.79
2018-03-27T02:14:53.113Z,96.03
2018-03-27T02:15:53.169Z,95.51
2018-03-27T02:16:53.138Z,95.07
2018-03-27T02:17:53.153Z,95.89
2018-03-27T02:19:53.479Z,95.07
2018-03-27T02:20:53.193Z,95.55
2018-03-27T02:21:53.196Z,95.55
2018-03-27T02:22:53.209Z,95.55
2018-03-27T02:23:53.222Z,95.84
2018-03-27T02:24:53.236Z,94.98
2018-03-27T02:25:53.246Z,94.98
2018-03-27T02:26:53.259Z,94.51
2018-03-27T02:27:53.283Z,94.13
2018-03-27T02:28:53.286Z,93.08
2018-03-27T02:29:53.295Z,93.41
2018-03-27T02:30:53.365Z,93.37
2018-03-27T02:31:53.341Z,93.60
2018-03-27T02:32:53.336Z,93.60
2018-03-27T02:33:53.347Z,92.61
2018-03-27T02:34:53.409Z,92.56
2018-03-27T02:35:53.379Z,92.37
2018-03-27T02:36:53.388Z,92.75
2018-03-27T02:37:53.406Z,93.13
2018-03-27T02:38:53.411Z,92.71
2018-03-27T02:39:53.426Z,93.80
2018-03-27T02:40:53.448Z,93.37
2018-03-27T02:41:53.452Z,93.65
2018-03-27T02:43:53.475Z,94.60
2018-03-27T02:44:53.495Z,94.60
2018-03-27T02:45:53.501Z,94.70
2018-03-27T02:46:53.512Z,94.42
2018-03-27T02:47:53.730Z,95.65
2018-03-27T02:48:53.549Z,96.31
2018-03-27T02:49:53.550Z,97.07
2018-03-27T02:50:53.564Z,96.03
2018-03-27T02:51:53.627Z,95.36
2018-03-27T02:53:53.602Z,97.12
2018-03-27T02:54:53.618Z,96.59
2018-03-27T02:55:53.626Z,97.17
2018-03-27T02:56:53.640Z,97.36
2018-03-27T02:57:53.651Z,97.07
2018-03-27T02:58:53.672Z,97.07
2018-03-27T02:59:53.677Z,97.07
2018-03-27T03:00:53.694Z,97.26
2018-03-27T03:01:53.703Z,96.50
2018-03-27T03:02:53.716Z,97.07
2018-03-27T03:03:53.726Z,96.59
2018-03-27T03:04:53.741Z,97.36
2018-03-27T03:05:53.900Z,97.45
2018-03-27T03:06:53.766Z,97.74
2018-03-27T03:07:53.777Z,98.68
2018-03-27T03:08:53.791Z,98.11
2018-03-27T03:09:53.806Z,98.40
2018-03-27T03:10:53.817Z,97.92
2018-03-27T03:11:53.828Z,97.45
2018-03-27T03:12:53.840Z,98.11
2018-03-27T03:13:53.852Z,98.21
2018-03-27T03:14:53.864Z,98.59
2018-03-27T03:15:53.878Z,98.21
2018-03-27T03:16:53.891Z,98.49
2018-03-27T03:18:54.016Z,99.11
2018-03-27T03:19:54.363Z,99.16
2018-03-27T03:20:53.940Z,99.54
2018-03-27T03:21:54.104Z,99.63
2018-03-27T03:22:53.966Z,99.82
2018-03-27T03:23:53.978Z,99.99
2018-03-27T03:24:53.995Z,99.73
2018-03-27T03:25:54.051Z,99.82
2018-03-27T03:26:54.068Z,99.99
2018-03-27T03:27:54.236Z,99.99
2018-03-27T03:28:54.394Z,99.06
2018-03-27T03:29:54.055Z,98.97
2018-03-27T03:30:54.071Z,98.78
2018-03-27T03:31:54.085Z,99.82
2018-03-27T03:32:54.092Z,98.97
2018-03-27T03:33:54.103Z,98.87
2018-03-27T03:34:54.115Z,98.97
2018-03-27T03:35:54.137Z,99.54
2018-03-27T03:36:54.147Z,99.91
2018-03-27T03:37:54.156Z,98.78
2018-03-27T03:38:54.192Z,99.16
2018-03-27T03:39:54.179Z,98.97
2018-03-27T03:40:54.193Z,99.06
2018-03-27T03:41:54.209Z,98.97
2018-03-27T03:42:54.217Z,98.68
2018-03-27T03:43:54.240Z,98.40
2018-03-27T03:44:54.245Z,98.87
2018-03-27T03:45:54.254Z,99.06
2018-03-27T03:46:54.269Z,99.73
2018-03-27T03:47:54.280Z,99.73
2018-03-27T03:48:54.291Z,99.82
2018-03-27T03:49:54.304Z,99.82
2018-03-27T03:50:54.316Z,98.49
2018-03-27T03:51:54.394Z,97.97
2018-03-27T03:52:54.505Z,98.07
2018-03-27T03:53:54.752Z,98.82
2018-03-27T03:54:54.369Z,99.11
2018-03-27T03:55:54.378Z,98.63
2018-03-27T03:56:54.391Z,99.01
2018-03-27T03:57:54.406Z,99.58
2018-03-27T03:58:54.428Z,99.54
2018-03-27T03:59:54.429Z,99.99
2018-03-27T04:00:54.492Z,99.68
2018-03-27T04:01:54.504Z,98.82
2018-03-27T04:02:54.508Z,98.92
2018-03-27T04:03:54.481Z,99.68
2018-03-27T04:04:54.491Z,99.49
2018-03-27T04:05:54.503Z,99.49
2018-03-27T04:06:54.515Z,99.99
2018-03-27T04:07:54.533Z,99.96
2018-03-27T04:08:54.542Z,99.99
2018-03-27T04:09:54.551Z,99.49
2018-03-27T04:10:54.565Z,99.87
2018-03-27T04:11:54.577Z,99.49
2018-03-27T04:12:54.591Z,99.99
2018-03-27T04:13:54.603Z,99.96
2018-03-27T04:14:54.613Z,99.99
2018-03-27T04:15:54.635Z,99.99
2018-03-27T04:16:54.642Z,99.99
2018-03-27T04:17:54.653Z,99.99
2018-03-27T04:18:54.666Z,99.77
2018-03-27T04:19:54.732Z,99.49
2018-03-27T04:20:54.691Z,99.68
2018-03-27T04:21:54.751Z,99.99
2018-03-27T04:22:54.783Z,99.99
2018-03-27T04:23:54.825Z,99.99
2018-03-27T04:24:54.751Z,99.99
2018-03-27T04:25:54.751Z,99.99
2018-03-27T04:26:54.768Z,99.99
2018-03-27T04:27:54.776Z,99.99
2018-03-27T04:28:54.786Z,99.99
2018-03-27T04:29:54.800Z,99.99
2018-03-27T04:30:54.812Z,99.96
2018-03-27T04:31:54.827Z,99.99
2018-03-27T04:32:54.887Z,99.99
2018-03-27T04:34:55.206Z,99.99
2018-03-27T04:35:54.877Z,99.68
2018-03-27T04:36:54.887Z,99.99
2018-03-27T04:37:54.898Z,99.87
2018-03-27T04:38:54.916Z,99.39
2018-03-27T04:39:54.922Z,99.99
2018-03-27T04:40:54.942Z,99.99
2018-03-27T04:41:54.946Z,99.99
2018-03-27T04:42:54.997Z,99.99
2018-03-27T04:43:54.971Z,99.99
2018-03-27T04:44:54.983Z,99.99
2018-03-27T04:45:55.000Z,99.99
2018-03-27T04:46:55.008Z,99.99
2018-03-27T04:47:55.022Z,99.99
2018-03-27T04:48:55.034Z,99.99
2018-03-27T04:49:55.045Z,99.99
2018-03-27T04:50:55.057Z,99.99
2018-03-27T04:51:55.145Z,99.99
2018-03-27T04:52:55.140Z,99.99
2018-03-27T04:53:55.174Z,99.99
2018-03-27T04:54:55.113Z,99.99
2018-03-27T04:55:55.121Z,99.99
2018-03-27T04:56:55.130Z,99.99
2018-03-27T04:57:55.139Z,99.99
2018-03-27T04:58:55.152Z,99.99
2018-03-27T04:59:55.168Z,99.99
2018-03-27T05:00:55.175Z,99.99
2018-03-27T05:01:55.248Z,99.99
2018-03-27T05:02:55.298Z,99.99
2018-03-27T05:03:55.376Z,99.99
2018-03-27T05:04:55.336Z,99.99
2018-03-27T05:05:55.239Z,99.99
2018-03-27T05:06:55.251Z,99.99
2018-03-27T05:07:55.260Z,99.99
2018-03-27T05:08:55.277Z,99.99
2018-03-27T05:09:55.285Z,99.99
2018-03-27T05:10:55.302Z,99.99
2018-03-27T05:11:55.315Z,99.99
2018-03-27T05:12:55.326Z,99.99
2018-03-27T05:13:55.333Z,99.99
2018-03-27T05:14:55.348Z,99.99
2018-03-27T05:15:55.357Z,99.99
2018-03-27T05:16:55.367Z,99.99
2018-03-27T05:17:55.379Z,99.99
2018-03-27T05:19:55.406Z,99.99
2018-03-27T05:20:55.455Z,99.99
2018-03-27T05:21:55.429Z,99.99
2018-03-27T05:22:55.451Z,99.99
2018-03-27T05:23:55.457Z,99.99
2018-03-27T05:26:55.918Z,99.99
2018-03-27T05:27:55.517Z,99.99
2018-03-27T05:28:55.510Z,99.99
2018-03-27T05:29:55.524Z,99.99
2018-03-27T05:32:55.761Z,99.99
2018-03-27T05:33:55.657Z,99.99
2018-03-27T05:34:55.583Z,99.99
2018-03-27T05:35:55.603Z,99.99
2018-03-27T05:36:55.610Z,99.91
2018-03-27T05:37:55.620Z,99.99
2018-03-27T05:38:55.637Z,99.99
2018-03-27T05:39:55.954Z,99.99
2018-03-27T05:40:55.655Z,99.99
2018-03-27T05:41:55.666Z,99.99
2018-03-27T05:42:55.680Z,99.99
2018-03-27T05:43:55.693Z,99.99
2018-03-27T05:44:55.705Z,99.99
2018-03-27T05:45:55.715Z,99.99
2018-03-27T05:46:55.738Z,99.99
2018-03-27T05:47:55.741Z,99.99
2018-03-27T05:48:55.750Z,99.99
2018-03-27T05:49:55.771Z,99.99
2018-03-27T05:50:55.772Z,99.99
2018-03-27T05:51:55.803Z,99.99
2018-03-27T05:52:55.798Z,99.99
2018-03-27T05:53:55.807Z,99.99
2018-03-27T05:54:55.820Z,99.99
2018-03-27T05:55:55.907Z,99.53
2018-03-27T05:56:55.852Z,99.63
2018-03-27T05:57:55.870Z,99.99
2018-03-27T05:58:55.891Z,99.72
2018-03-27T05:59:55.888Z,99.99
2018-03-27T06:00:55.895Z,99.99
2018-03-27T06:01:55.902Z,99.99
2018-03-27T06:02:55.915Z,99.99
2018-03-27T06:03:55.962Z,99.99
2018-03-27T06:04:56.394Z,99.99
2018-03-27T06:05:55.952Z,99.99
2018-03-27T06:06:55.965Z,99.99
2018-03-27T06:07:55.977Z,99.99
2018-03-27T06:08:56.008Z,99.99
2018-03-27T06:09:56.009Z,99.99
2018-03-27T06:10:56.016Z,99.99
2018-03-27T06:11:56.027Z,99.99
2018-03-27T06:12:56.053Z,99.99
2018-03-27T06:13:56.042Z,99.99
2018-03-27T06:14:56.067Z,99.99
2018-03-27T06:15:56.078Z,99.99
2018-03-27T06:16:56.086Z,99.99
2018-03-27T06:17:56.092Z,99.99
2018-03-27T06:18:56.103Z,99.99
2018-03-27T06:19:56.115Z,99.99
2018-03-27T06:20:56.126Z,99.99
2018-03-27T06:21:56.141Z,99.99
2018-03-27T06:22:56.156Z,99.99
2018-03-27T06:23:56.162Z,99.99
2018-03-27T06:24:56.183Z,99.99
2018-03-27T06:25:56.187Z,99.99
2018-03-27T06:26:56.216Z,99.99
2018-03-27T06:27:56.232Z,99.99
2018-03-27T06:28:56.281Z,99.99
2018-03-27T06:29:56.330Z,99.99
2018-03-27T06:30:56.677Z,99.99
2018-03-27T06:31:56.258Z,99.99
2018-03-27T06:32:56.267Z,99.99
2018-03-27T06:33:56.296Z,99.99
2018-03-27T06:34:56.290Z,99.99
2018-03-27T06:35:57.107Z,99.99
2018-03-27T06:36:56.514Z,99.99
2018-03-27T06:37:56.736Z,99.99
2018-03-27T06:38:56.332Z,99.99
2018-03-27T06:39:56.344Z,99.96
2018-03-27T06:40:56.361Z,99.49
2018-03-27T06:41:56.784Z,99.99
2018-03-27T06:42:56.416Z,99.99
2018-03-27T06:43:56.404Z,99.99
2018-03-27T06:44:56.406Z,99.99
2018-03-27T06:45:56.418Z,99.99
2018-03-27T06:46:56.433Z,99.99
2018-03-27T06:47:56.445Z,99.99
2018-03-27T06:48:56.454Z,99.99
2018-03-27T06:49:56.467Z,99.99
2018-03-27T06:50:56.579Z,99.99
2018-03-27T06:51:56.518Z,99.99
2018-03-27T06:52:56.569Z,99.99
2018-03-27T06:53:56.518Z,99.99
2018-03-27T06:54:56.532Z,99.99
2018-03-27T06:55:56.708Z,99.99
2018-03-27T06:56:56.553Z,99.99
2018-03-27T06:57:56.563Z,99.99
2018-03-27T06:58:56.576Z,99.99
2018-03-27T06:59:56.681Z,99.99
2018-03-27T07:00:56.603Z,99.99
2018-03-27T07:01:56.709Z,99.99
2018-03-27T07:02:56.626Z,99.99
2018-03-27T07:03:56.673Z,99.99
2018-03-27T07:04:56.651Z,99.99
2018-03-27T07:05:56.664Z,99.99
2018-03-27T07:06:56.673Z,99.99
2018-03-27T07:07:56.789Z,99.99
2018-03-27T07:09:57.078Z,99.99
2018-03-27T07:10:56.849Z,99.99
2018-03-27T07:11:56.764Z,99.99
2018-03-27T07:12:56.757Z,99.99
2018-03-27T07:13:56.779Z,99.99
2018-03-27T07:14:56.772Z,99.99
2018-03-27T07:15:56.795Z,99.99
2018-03-27T07:16:56.798Z,99.99
2018-03-27T07:17:56.841Z,99.99
2018-03-27T07:18:56.826Z,99.99
2018-03-27T07:20:56.907Z,99.99
2018-03-27T07:21:56.864Z,99.99
2018-03-27T07:22:56.872Z,99.99
2018-03-27T07:23:56.884Z,99.99
2018-03-27T07:25:56.910Z,99.99
2018-03-27T07:26:57.052Z,99.99
2018-03-27T07:27:56.929Z,99.99
2018-03-27T07:28:56.945Z,99.99
2018-03-27T07:29:56.958Z,99.99
2018-03-27T07:31:57.129Z,99.99
2018-03-27T07:32:57.294Z,99.99
2018-03-27T07:33:57.150Z,99.99
2018-03-27T07:34:57.016Z,99.49
2018-03-27T07:35:57.029Z,99.99
2018-03-27T07:36:57.042Z,99.99
2018-03-27T07:37:57.058Z,99.99
2018-03-27T07:38:57.087Z,99.99
2018-03-27T07:40:57.146Z,99.49
2018-03-27T07:41:57.103Z,99.99
2018-03-27T07:42:57.942Z,99.99
2018-03-27T07:43:57.129Z,99.99
2018-03-27T07:44:57.143Z,99.99
2018-03-27T07:45:57.154Z,99.99
2018-03-27T07:46:57.168Z,99.99
2018-03-27T07:47:57.179Z,99.99
2018-03-27T07:48:57.193Z,99.99
2018-03-27T07:49:57.220Z,99.99
2018-03-27T07:50:57.219Z,99.99
2018-03-27T07:51:57.235Z,99.73
2018-03-27T07:52:57.247Z,99.16
2018-03-27T07:53:57.743Z,99.26
2018-03-27T07:54:57.344Z,99.16
2018-03-27T07:55:57.285Z,99.73
2018-03-27T07:56:57.294Z,99.54
2018-03-27T07:57:57.308Z,99.54
2018-03-27T07:58:57.324Z,99.26
2018-03-27T07:59:57.399Z,98.49
2018-03-27T08:00:57.349Z,97.83
2018-03-27T08:01:57.421Z,98.30
2018-03-27T08:04:57.626Z,98.59
2018-03-27T08:05:57.921Z,97.88
2018-03-27T08:06:57.429Z,98.07
2018-03-27T08:07:57.442Z,97.97
2018-03-27T08:08:57.455Z,97.74
2018-03-27T08:09:57.468Z,98.30
2018-03-27T08:10:57.672Z,98.97
2018-03-27T08:11:57.810Z,98.97
2018-03-27T08:12:57.511Z,99.16
2018-03-27T08:13:57.523Z,99.82
2018-03-27T08:14:57.539Z,99.63
2018-03-27T08:15:57.765Z,99.73
2018-03-27T08:16:57.566Z,99.99
2018-03-27T08:17:57.585Z,99.99
2018-03-27T08:18:57.635Z,99.73
2018-03-27T08:19:57.606Z,99.73
2018-03-27T08:20:57.636Z,99.99
2018-03-27T08:21:57.632Z,99.58
2018-03-27T08:22:58.180Z,98.83
2018-03-27T08:23:57.753Z,98.83
2018-03-27T08:24:57.701Z,98.92
2018-03-27T08:25:57.684Z,98.83
2018-03-27T08:26:58.589Z,99.21
2018-03-27T08:27:57.722Z,99.40
2018-03-27T08:28:57.729Z,99.97
2018-03-27T08:29:57.906Z,99.77
2018-03-27T08:30:57.753Z,99.16
2018-03-27T08:31:57.777Z,98.97
2018-03-27T08:32:57.784Z,99.99
2018-03-27T08:33:57.797Z,99.99
2018-03-27T08:34:57.808Z,99.99
2018-03-27T08:35:57.831Z,99.99
2018-03-27T08:36:58.135Z,99.99
2018-03-27T08:37:57.849Z,99.99
2018-03-27T08:38:57.864Z,99.99
2018-03-27T08:39:57.873Z,99.99
2018-03-27T08:40:57.890Z,99.99
2018-03-27T08:41:57.909Z,99.99
2018-03-27T08:42:57.925Z,99.99
2018-03-27T08:43:57.948Z,99.99
2018-03-27T08:44:57.948Z,99.99
2018-03-27T08:45:57.957Z,99.99
2018-03-27T08:47:58.014Z,99.99
2018-03-27T08:48:57.997Z,99.99
2018-03-27T08:49:58.027Z,99.99
2018-03-27T08:50:58.143Z,99.99
2018-03-27T08:51:58.041Z,99.99
2018-03-27T08:52:58.054Z,99.99
2018-03-27T08:53:58.065Z,99.99
2018-03-27T08:54:58.305Z,99.99
2018-03-27T08:55:58.119Z,99.99
2018-03-27T08:56:58.100Z,99.77
2018-03-27T08:57:58.112Z,98.92
2018-03-27T08:58:58.144Z,99.11
2018-03-27T08:59:58.166Z,99.30
2018-03-27T09:00:58.257Z,98.73
2018-03-27T09:01:58.170Z,98.35
2018-03-27T09:02:58.185Z,97.64
2018-03-27T09:03:58.201Z,97.74
2018-03-27T09:04:58.208Z,96.98
2018-03-27T09:05:58.233Z,96.31
2018-03-27T09:06:58.234Z,96.31
2018-03-27T09:07:58.246Z,95.41
2018-03-27T09:08:58.262Z,94.93
2018-03-27T09:09:58.292Z,94.08
2018-03-27T09:10:58.291Z,93.89
2018-03-27T09:11:58.312Z,93.60
2018-03-27T09:12:58.317Z,93.70
2018-03-27T09:13:58.333Z,93.23
2018-03-27T09:14:58.348Z,91.99
2018-03-27T09:15:58.369Z,92.56
2018-03-27T09:16:58.651Z,93.32
2018-03-27T09:17:58.390Z,92.27
2018-03-27T09:18:58.408Z,91.99
2018-03-27T09:19:58.431Z,91.33
2018-03-27T09:20:58.500Z,91.94
2018-03-27T09:21:58.443Z,92.08
2018-03-27T09:22:58.458Z,91.99
2018-03-27T09:23:58.471Z,91.99
2018-03-27T09:24:58.485Z,91.80
2018-03-27T09:25:58.502Z,90.85
2018-03-27T09:26:58.514Z,90.85
2018-03-27T09:27:58.529Z,90.05
2018-03-27T09:28:58.557Z,90.85
2018-03-27T09:29:58.553Z,90.37
2018-03-27T09:30:58.582Z,90.85
2018-03-27T09:31:58.592Z,91.23
2018-03-27T09:32:58.687Z,90.66
2018-03-27T09:33:58.611Z,91.52
2018-03-27T09:34:58.629Z,91.61
2018-03-27T09:35:58.651Z,92.27
2018-03-27T09:36:58.652Z,92.08
2018-03-27T09:37:58.666Z,92.37
2018-03-27T09:38:58.699Z,92.27
2018-03-27T09:39:58.694Z,91.71
2018-03-27T09:40:58.711Z,91.23
2018-03-27T09:41:58.724Z,90.33
2018-03-27T09:42:58.738Z,90.42
2018-03-27T09:43:58.761Z,89.56
2018-03-27T09:44:58.782Z,89.75
2018-03-27T09:45:58.776Z,89.04
2018-03-27T09:46:58.788Z,90.09
2018-03-27T09:47:58.803Z,89.42
2018-03-27T09:48:59.323Z,90.14
2018-03-27T09:49:58.828Z,90.37
2018-03-27T09:50:58.881Z,91.13
2018-03-27T09:51:58.860Z,90.33
2018-03-27T09:52:58.882Z,90.75
2018-03-27T09:53:58.889Z,91.42
2018-03-27T09:54:58.899Z,91.94
2018-03-27T09:55:58.960Z,91.28
2018-03-27T09:56:58.934Z,90.80
2018-03-27T09:57:58.948Z,90.70
2018-03-27T09:58:58.957Z,90.04
2018-03-27T09:59:58.969Z,88.71
2018-03-27T10:00:58.983Z,88.90
2018-03-27T10:01:58.998Z,90.23
2018-03-27T10:02:59.012Z,90.42
2018-03-27T10:03:59.025Z,90.89
2018-03-27T10:04:59.052Z,90.23
2018-03-27T10:05:59.114Z,89.80
2018-03-27T10:06:59.065Z,88.61
2018-03-27T10:07:59.117Z,89.37
2018-03-27T10:08:59.401Z,89.99
2018-03-27T10:09:59.110Z,89.23
2018-03-27T10:10:59.125Z,87.04
2018-03-27T10:11:59.139Z,86.85
2018-03-27T10:12:59.153Z,86.57
2018-03-27T10:13:59.166Z,85.08
2018-03-27T10:14:59.185Z,84.80
2018-03-27T10:15:59.194Z,84.61
2018-03-27T10:16:59.218Z,84.23
2018-03-27T10:17:59.226Z,83.85
2018-03-27T10:18:59.237Z,83.28
2018-03-27T10:19:59.250Z,83.09
2018-03-27T10:20:59.264Z,82.80
2018-03-27T10:21:59.278Z,81.85
2018-03-27T10:22:59.292Z,81.89
2018-03-27T10:23:59.318Z,82.37
2018-03-27T10:24:59.774Z,81.85
2018-03-27T10:25:59.338Z,82.23
2018-03-27T10:26:59.569Z,81.85
2018-03-27T10:27:59.459Z,82.99
2018-03-27T10:28:59.404Z,82.42
2018-03-27T10:29:59.393Z,81.51
2018-03-27T10:30:59.417Z,80.75
2018-03-27T10:31:59.446Z,79.41
2018-03-27T10:32:59.438Z,79.89
2018-03-27T10:33:59.503Z,78.56
2018-03-27T10:34:59.465Z,78.80
2018-03-27T10:35:59.492Z,79.22
2018-03-27T10:36:59.501Z,79.41
2018-03-27T10:37:59.514Z,77.70
2018-03-27T10:38:59.522Z,77.07
2018-03-27T10:39:59.541Z,75.64
2018-03-27T10:40:59.553Z,74.98
2018-03-27T10:41:59.575Z,74.21
2018-03-27T10:42:59.579Z,74.12
2018-03-27T10:43:59.597Z,73.36
2018-03-27T10:44:59.609Z,73.21
2018-03-27T10:45:59.621Z,72.92
2018-03-27T10:46:59.641Z,71.55
2018-03-27T10:47:59.650Z,71.26
2018-03-27T10:48:59.676Z,71.17
2018-03-27T10:50:59.696Z,70.34
2018-03-27T10:51:59.814Z,69.58
2018-03-27T10:52:59.826Z,67.77
2018-03-27T10:53:59.737Z,67.52
2018-03-27T10:54:59.764Z,66.24
2018-03-27T10:56:00.083Z,66.72
2018-03-27T10:56:59.782Z,67.00
2018-03-27T10:57:59.930Z,67.29
2018-03-27T10:58:59.838Z,66.72
2018-03-27T10:59:59.850Z,63.10
2018-03-27T11:00:59.857Z,57.95
2018-03-27T11:01:59.865Z,55.57
2018-03-27T11:02:59.879Z,55.19
2018-03-27T11:03:59.966Z,53.47
2018-03-27T11:05:00.571Z,52.04
2018-03-27T11:05:59.922Z,52.80
2018-03-27T11:06:59.932Z,53.00
2018-03-27T11:08:00.237Z,53.56
2018-03-27T11:09:00.057Z,50.71
2018-03-27T11:11:00.063Z,51.95
2018-03-27T11:12:00.022Z,52.80
2018-03-27T11:13:00.025Z,51.95
2018-03-27T11:14:00.095Z,51.18
2018-03-27T11:15:00.182Z,50.32
2018-03-27T11:16:00.067Z,49.85
2018-03-27T11:17:00.083Z,50.23
2018-03-27T11:18:00.100Z,49.40
2018-03-27T11:19:00.112Z,49.02
2018-03-27T11:20:00.127Z,49.21
2018-03-27T11:21:00.143Z,49.78
2018-03-27T11:22:00.158Z,49.49
2018-03-27T11:23:00.182Z,49.87
2018-03-27T11:24:00.188Z,50.07
2018-03-27T11:25:00.209Z,50.16
2018-03-27T11:26:00.261Z,50.16
2018-03-27T11:27:00.298Z,49.11
2018-03-27T11:28:00.392Z,49.49
2018-03-27T11:29:00.514Z,49.30
2018-03-27T11:30:00.281Z,49.87
2018-03-27T11:31:00.302Z,49.68
2018-03-27T11:32:00.313Z,50.07
2018-03-27T11:33:00.329Z,50.16
2018-03-27T11:34:00.344Z,51.02
2018-03-27T11:35:00.364Z,49.49
2018-03-27T11:36:00.374Z,49.68
2018-03-27T11:37:00.389Z,49.02
2018-03-27T11:38:00.406Z,49.68
2018-03-27T11:39:00.421Z,49.30
2018-03-27T11:40:00.455Z,50.07
2018-03-27T11:41:00.452Z,49.21
2018-03-27T11:42:00.481Z,48.07
2018-03-27T11:43:00.489Z,48.44
2018-03-27T11:44:00.501Z,48.07
2018-03-27T11:45:00.514Z,48.44
2018-03-27T11:46:00.529Z,46.92
2018-03-27T11:47:00.552Z,47.39
2018-03-27T11:48:00.559Z,47.61
2018-03-27T11:49:00.580Z,47.03
2018-03-27T11:50:00.596Z,46.27
2018-03-27T11:51:00.607Z,46.66
2018-03-27T11:52:00.622Z,47.23
2018-03-27T11:53:00.642Z,47.23
2018-03-27T11:54:00.662Z,46.66
2018-03-27T11:55:00.671Z,46.08
2018-03-27T11:56:00.692Z,47.20
2018-03-27T11:57:00.724Z,46.25
2018-03-27T11:58:00.720Z,46.63
2018-03-27T11:59:00.777Z,46.73
2018-03-27T12:00:00.749Z,46.37
2018-03-27T12:01:00.779Z,46.56
2018-03-27T12:02:00.798Z,45.79
2018-03-27T12:03:00.798Z,44.84
2018-03-27T12:04:00.878Z,45.51
2018-03-27T12:05:00.937Z,45.70
2018-03-27T12:06:00.846Z,45.13
2018-03-27T12:07:00.859Z,44.27
2018-03-27T12:08:00.880Z,44.74
2018-03-27T12:09:00.891Z,44.38
2018-03-27T12:10:00.904Z,43.91
2018-03-27T12:11:00.924Z,42.84
2018-03-27T12:12:00.938Z,42.57
2018-03-27T12:13:00.955Z,42.74
2018-03-27T12:14:00.970Z,43.13
2018-03-27T12:15:00.985Z,43.41
2018-03-27T12:16:01.026Z,43.32
2018-03-27T12:17:01.015Z,43.89
2018-03-27T12:18:01.036Z,44.27
2018-03-27T12:19:01.050Z,43.13
2018-03-27T12:20:01.067Z,44.08
2018-03-27T12:21:01.080Z,44.08
2018-03-27T12:22:01.095Z,43.32
2018-03-27T12:23:01.139Z,42.65
2018-03-27T12:24:01.132Z,42.65
2018-03-27T12:25:01.169Z,42.84
2018-03-27T12:26:01.159Z,42.93
2018-03-27T12:27:01.175Z,42.74
2018-03-27T12:28:01.192Z,43.20
2018-03-27T12:29:01.224Z,42.15
2018-03-27T12:30:01.222Z,42.24
2018-03-27T12:31:01.236Z,43.22
2018-03-27T12:32:01.271Z,44.08
2018-03-27T12:33:01.271Z,42.93
2018-03-27T12:34:01.297Z,42.84
2018-03-27T12:35:01.301Z,43.03
2018-03-27T12:36:01.338Z,43.03
2018-03-27T12:37:01.334Z,42.84
2018-03-27T12:38:01.358Z,42.74
2018-03-27T12:39:01.471Z,43.03
2018-03-27T12:40:01.389Z,43.98
2018-03-27T12:41:01.401Z,43.96
2018-03-27T12:42:01.418Z,43.01
2018-03-27T12:43:01.433Z,43.29
2018-03-27T12:44:01.448Z,43.29
2018-03-27T12:45:01.462Z,43.10
2018-03-27T12:46:01.478Z,43.20
2018-03-27T12:47:01.491Z,43.22
2018-03-27T12:48:01.507Z,43.32
2018-03-27T12:49:01.520Z,42.84
2018-03-27T12:50:01.535Z,43.68
2018-03-27T12:52:01.572Z,43.01
2018-03-27T12:53:01.586Z,42.53
2018-03-27T12:54:01.596Z,43.20
2018-03-27T12:55:01.610Z,43.10
2018-03-27T12:56:01.630Z,43.01
2018-03-27T12:57:01.645Z,43.20
2018-03-27T12:58:01.682Z,43.10
2018-03-27T12:59:01.715Z,43.68
2018-03-27T13:00:01.701Z,43.20
2018-03-27T13:01:01.704Z,43.20
2018-03-27T13:02:01.720Z,43.39
2018-03-27T13:03:01.737Z,43.29
2018-03-27T13:05:01.791Z,43.39
2018-03-27T13:06:01.817Z,43.01
2018-03-27T13:07:01.798Z,43.03
2018-03-27T13:08:01.819Z,43.89
2018-03-27T13:09:01.828Z,42.08
2018-03-27T13:10:01.842Z,41.98
2018-03-27T13:11:01.859Z,43.13
2018-03-27T13:12:01.872Z,43.32
2018-03-27T13:13:01.890Z,43.70
2018-03-27T13:15:01.922Z,42.84
2018-03-27T13:16:01.935Z,44.08
2018-03-27T13:17:01.950Z,44.27
2018-03-27T13:18:01.967Z,44.08
2018-03-27T13:19:01.994Z,43.98
2018-03-27T13:20:02.009Z,42.93
2018-03-27T13:21:02.524Z,42.74
2018-03-27T13:22:02.028Z,42.93
2018-03-27T13:23:02.050Z,42.65
2018-03-27T13:24:02.058Z,43.13
2018-03-27T13:25:02.085Z,43.98